createdAt,value
2018-03-01T00:00:21.125Z,964.7
2018-03-01T00:01:22.769Z,964.7
2018-03-01T00:02:24.417Z,964.7
2018-03-01T00:03:26.075Z,964.7
2018-03-01T00:04:27.727Z,964.6
2018-03-01T00:05:29.366Z,964.7
2018-03-01T00:06:31.014Z,964.6
2018-03-01T00:07:32.655Z,964.6
2018-03-01T00:08:34.299Z,964.6
2018-03-01T00:09:35.937Z,964.4
2018-03-01T00:10:37.587Z,964.5
2018-03-01T00:11:39.231Z,964.5
2018-03-01T00:12:40.887Z,964.5
2018-03-01T00:13:42.537Z,964.6
2018-03-01T00:14:44.174Z,964.5
2018-03-01T00:15:45.822Z,964.5
2018-03-01T00:16:47.464Z,964.5
2018-03-01T00:17:49.110Z,964.6
2018-03-01T00:18:50.748Z,964.4
2018-03-01T00:19:52.399Z,964.5
2018-03-01T00:20:54.038Z,964.4
2018-03-01T00:21:55.684Z,964.5
2018-03-01T00:22:57.332Z,964.5
2018-03-01T00:23:58.965Z,964.5
2018-03-01T00:25:00.608Z,964.5
2018-03-01T00:26:02.258Z,964.5
2018-03-01T00:27:03.897Z,964.5
2018-03-01T00:28:05.541Z,964.7
2018-03-01T00:29:07.192Z,964.5
2018-03-01T00:30:08.831Z,964.6
2018-03-01T00:31:10.489Z,964.5
2018-03-01T00:32:12.149Z,964.6
2018-03-01T00:33:13.800Z,964.6
2018-03-01T00:34:15.438Z,964.6
2018-03-01T00:35:17.084Z,964.5
2018-03-01T00:36:18.737Z,964.6
2018-03-01T00:37:20.375Z,964.6
2018-03-01T00:38:22.014Z,964.5
2018-03-01T00:39:23.662Z,964.5
2018-03-01T00:40:25.311Z,964.5
2018-03-01T00:41:26.950Z,964.5
2018-03-01T00:42:28.593Z,964.4
2018-03-01T00:43:30.237Z,964.5
2018-03-01T00:44:31.871Z,964.5
2018-03-01T00:45:33.518Z,964.5
2018-03-01T00:46:35.223Z,964.3
2018-03-01T00:47:36.877Z,964.4
2018-03-01T00:48:38.517Z,964.4
2018-03-01T00:49:40.164Z,964.3
2018-03-01T00:50:41.797Z,964.3
2018-03-01T00:51:43.447Z,964.2
2018-03-01T00:52:45.096Z,964.2
2018-03-01T00:53:46.743Z,964.1
2018-03-01T00:54:48.389Z,964.3
2018-03-01T00:55:50.033Z,964.1
2018-03-01T00:56:51.675Z,964.0
2018-03-01T00:57:53.311Z,964.1
2018-03-01T00:58:54.951Z,964.0
2018-03-01T00:59:56.598Z,964.1
2018-03-01T01:00:58.236Z,964.0
2018-03-01T01:01:59.875Z,964.1
2018-03-01T01:03:01.520Z,964.0
2018-03-01T01:04:03.175Z,964.0
2018-03-01T01:05:05.479Z,964.0
2018-03-01T01:06:07.112Z,964.0
2018-03-01T01:07:08.756Z,964.0
2018-03-01T01:08:10.397Z,963.9
2018-03-01T01:09:12.045Z,963.9
2018-03-01T01:10:13.687Z,963.9
2018-03-01T01:11:15.338Z,963.9
2018-03-01T01:12:16.990Z,963.8
2018-03-01T01:13:18.621Z,963.7
2018-03-01T01:14:20.269Z,963.7
2018-03-01T01:15:21.913Z,963.6
2018-03-01T01:16:23.558Z,963.7
2018-03-01T01:17:25.217Z,963.7
2018-03-01T01:18:26.867Z,963.6
2018-03-01T01:19:28.511Z,963.6
2018-03-01T01:20:30.164Z,963.5
2018-03-01T01:21:31.812Z,963.6
2018-03-01T01:22:33.458Z,963.7
2018-03-01T01:23:35.106Z,963.7
2018-03-01T01:24:36.747Z,963.6
2018-03-01T01:25:38.400Z,963.6
2018-03-01T01:26:40.034Z,963.5
2018-03-01T01:27:41.673Z,963.5
2018-03-01T01:28:43.321Z,963.5
2018-03-01T01:29:45.064Z,963.4
2018-03-01T01:30:46.716Z,963.4
2018-03-01T01:31:48.367Z,963.3
2018-03-01T01:32:50.003Z,963.4
2018-03-01T01:33:51.649Z,963.4
2018-03-01T01:34:53.288Z,963.4
2018-03-01T01:35:54.930Z,963.4
2018-03-01T01:36:56.573Z,963.6
2018-03-01T01:37:58.215Z,963.4
2018-03-01T01:38:59.854Z,963.6
2018-03-01T01:40:01.498Z,963.4
2018-03-01T01:41:03.137Z,963.3
2018-03-01T01:42:04.783Z,963.2
2018-03-01T01:43:06.427Z,963.2
2018-03-01T01:44:08.070Z,963.2
2018-03-01T01:45:09.714Z,963.3
2018-03-01T01:46:11.348Z,963.3
2018-03-01T01:47:13.000Z,963.3
2018-03-01T01:48:14.645Z,963.4
2018-03-01T01:49:16.288Z,963.4
2018-03-01T01:50:17.933Z,963.4
2018-03-01T01:51:19.579Z,963.4
2018-03-01T01:52:21.217Z,963.5
2018-03-01T01:53:22.865Z,963.5
2018-03-01T01:54:24.507Z,963.6
2018-03-01T01:55:26.157Z,963.5
2018-03-01T01:56:27.806Z,963.5
2018-03-01T01:57:29.445Z,963.5
2018-03-01T01:58:31.117Z,963.5
2018-03-01T01:59:32.767Z,963.5
2018-03-01T02:00:34.409Z,963.6
2018-03-01T02:01:36.051Z,963.6
2018-03-01T02:02:37.692Z,963.6
2018-03-01T02:03:39.337Z,963.7
2018-03-01T02:04:40.980Z,963.6
2018-03-01T02:05:42.618Z,963.7
2018-03-01T02:06:44.258Z,963.7
2018-03-01T02:07:45.900Z,963.7
2018-03-01T02:08:47.554Z,963.7
2018-03-01T02:09:49.195Z,963.5
2018-03-01T02:10:50.836Z,963.7
2018-03-01T02:11:52.488Z,963.6
2018-03-01T02:12:54.129Z,963.6
2018-03-01T02:13:55.781Z,963.6
2018-03-01T02:14:57.422Z,963.6
2018-03-01T02:15:59.069Z,963.5
2018-03-01T02:17:00.715Z,963.5
2018-03-01T02:18:02.371Z,963.6
2018-03-01T02:19:04.006Z,963.6
2018-03-01T02:20:05.649Z,963.6
2018-03-01T02:21:07.282Z,963.7
2018-03-01T02:22:08.925Z,963.6
2018-03-01T02:23:10.571Z,963.6
2018-03-01T02:24:12.224Z,963.6
2018-03-01T02:25:13.866Z,963.6
2018-03-01T02:26:15.520Z,963.6
2018-03-01T02:27:17.158Z,963.4
2018-03-01T02:28:18.802Z,963.5
2018-03-01T02:29:20.445Z,963.5
2018-03-01T02:30:22.089Z,963.4
2018-03-01T02:31:23.734Z,963.3
2018-03-01T02:32:25.376Z,963.3
2018-03-01T02:33:27.018Z,963.3
2018-03-01T02:34:28.663Z,963.3
2018-03-01T02:35:30.305Z,963.2
2018-03-01T02:36:31.951Z,963.3
2018-03-01T02:37:33.595Z,963.2
2018-03-01T02:38:35.693Z,963.3
2018-03-01T02:39:37.321Z,963.2
2018-03-01T02:40:38.970Z,963.1
2018-03-01T02:41:40.606Z,963.2
2018-03-01T02:42:42.256Z,963.1
2018-03-01T02:43:43.902Z,963.0
2018-03-01T02:44:45.551Z,963.1
2018-03-01T02:45:47.198Z,963.1
2018-03-01T02:46:48.834Z,963.2
2018-03-01T02:47:50.476Z,963.0
2018-03-01T02:48:52.117Z,963.0
2018-03-01T02:49:53.773Z,963.0
2018-03-01T02:50:55.422Z,963.0
2018-03-01T02:51:57.071Z,963.0
2018-03-01T02:52:58.713Z,963.1
2018-03-01T02:54:00.348Z,963.0
2018-03-01T02:55:01.995Z,963.1
2018-03-01T03:01:23.405Z,963.0
2018-03-01T03:02:25.044Z,962.9
2018-03-01T03:03:26.691Z,962.9
2018-03-01T03:04:28.330Z,962.9
2018-03-01T03:05:29.974Z,963.0
2018-03-01T03:06:31.615Z,962.9
2018-03-01T03:07:33.260Z,962.9
2018-03-01T03:08:34.902Z,962.9
2018-03-01T03:09:36.542Z,962.8
2018-03-01T03:10:38.185Z,962.8
2018-03-01T03:11:39.832Z,962.8
2018-03-01T03:12:41.473Z,962.8
2018-03-01T03:13:43.120Z,962.6
2018-03-01T03:14:44.765Z,962.7
2018-03-01T03:15:46.420Z,962.9
2018-03-01T03:16:48.067Z,962.6
2018-03-01T03:17:49.722Z,962.6
2018-03-01T03:18:51.360Z,962.7
2018-03-01T03:19:53.005Z,962.6
2018-03-01T03:20:54.652Z,962.5
2018-03-01T03:21:56.302Z,962.6
2018-03-01T03:22:57.944Z,962.5
2018-03-01T03:23:59.587Z,962.5
2018-03-01T03:25:01.242Z,962.5
2018-03-01T03:26:02.888Z,962.4
2018-03-01T03:27:04.544Z,962.5
2018-03-01T03:28:06.200Z,962.5
2018-03-01T03:29:07.827Z,962.5
2018-03-01T03:30:09.475Z,962.4
2018-03-01T03:31:11.124Z,962.5
2018-03-01T03:32:12.769Z,962.4
2018-03-01T03:33:14.416Z,962.4
2018-03-01T03:34:16.060Z,962.4
2018-03-01T03:35:17.700Z,962.3
2018-03-01T03:36:19.344Z,962.3
2018-03-01T03:37:20.991Z,962.3
2018-03-01T03:38:22.633Z,962.3
2018-03-01T03:39:24.277Z,962.3
2018-03-01T03:40:25.923Z,962.2
2018-03-01T03:41:27.577Z,962.3
2018-03-01T03:42:29.230Z,962.2
2018-03-01T03:43:30.875Z,962.2
2018-03-01T03:44:32.513Z,962.1
2018-03-01T03:45:34.156Z,962.2
2018-03-01T03:46:35.802Z,962.1
2018-03-01T03:47:37.445Z,962.2
2018-03-01T03:48:39.091Z,962.1
2018-03-01T03:49:40.733Z,962.1
2018-03-01T03:50:42.378Z,962.0
2018-03-01T03:51:44.022Z,962.1
2018-03-01T03:52:45.675Z,962.1
2018-03-01T03:53:47.309Z,962.1
2018-03-01T03:54:48.951Z,962.1
2018-03-01T03:55:50.599Z,962.0
2018-03-01T03:56:52.246Z,962.1
2018-03-01T03:57:53.901Z,962.1
2018-03-01T03:58:55.554Z,962.0
2018-03-01T03:59:57.198Z,961.9
2018-03-01T04:00:58.852Z,962.0
2018-03-01T04:02:00.497Z,961.9
2018-03-01T04:03:02.151Z,961.9
2018-03-01T04:04:03.795Z,961.9
2018-03-01T04:05:05.440Z,961.9
2018-03-01T04:06:07.092Z,961.8
2018-03-01T04:07:08.734Z,961.8
2018-03-01T04:08:10.381Z,961.7
2018-03-01T04:09:12.027Z,961.8
2018-03-01T04:10:13.680Z,961.8
2018-03-01T04:11:15.338Z,961.7
2018-03-01T04:12:16.984Z,961.8
2018-03-01T04:13:18.625Z,961.8
2018-03-01T04:14:20.265Z,961.7
2018-03-01T04:15:21.925Z,961.7
2018-03-01T04:16:23.567Z,961.8
2018-03-01T04:17:25.217Z,961.8
2018-03-01T04:18:26.865Z,961.8
2018-03-01T04:19:28.505Z,961.8
2018-03-01T04:20:30.150Z,961.8
2018-03-01T04:21:31.794Z,961.7
2018-03-01T04:22:33.434Z,961.8
2018-03-01T04:23:35.078Z,961.6
2018-03-01T04:24:36.739Z,961.7
2018-03-01T04:25:38.388Z,961.7
2018-03-01T04:26:40.035Z,961.6
2018-03-01T04:27:41.682Z,961.6
2018-03-01T04:28:43.322Z,961.7
2018-03-01T04:29:44.966Z,961.6
2018-03-01T04:30:46.611Z,961.6
2018-03-01T04:31:48.255Z,961.6
2018-03-01T04:32:49.907Z,961.5
2018-03-01T04:33:51.561Z,961.6
2018-03-01T04:34:53.200Z,961.6
2018-03-01T04:35:54.849Z,961.5
2018-03-01T04:36:56.488Z,961.5
2018-03-01T04:37:58.126Z,961.7
2018-03-01T04:38:59.772Z,961.5
2018-03-01T04:40:01.410Z,961.5
2018-03-01T04:41:03.053Z,961.5
2018-03-01T04:42:04.705Z,961.5
2018-03-01T04:43:06.344Z,961.5
2018-03-01T04:44:07.983Z,961.5
2018-03-01T04:45:09.630Z,961.5
2018-03-01T04:46:11.270Z,961.5
2018-03-01T04:47:12.911Z,961.4
2018-03-01T04:48:14.557Z,961.4
2018-03-01T04:49:16.198Z,961.5
2018-03-01T04:50:17.837Z,961.4
2018-03-01T04:51:19.470Z,961.4
2018-03-01T04:52:21.118Z,961.4
2018-03-01T04:53:22.762Z,961.4
2018-03-01T04:54:24.412Z,961.4
2018-03-01T04:55:26.056Z,961.4
2018-03-01T04:56:27.704Z,961.4
2018-03-01T04:57:29.346Z,961.3
2018-03-01T04:58:31.013Z,961.4
2018-03-01T04:59:32.668Z,961.5
2018-03-01T05:00:34.315Z,961.4
2018-03-01T05:01:35.951Z,961.3
2018-03-01T05:02:37.594Z,961.4
2018-03-01T05:03:39.247Z,961.4
2018-03-01T05:04:40.895Z,961.4
2018-03-01T05:05:42.537Z,961.4
2018-03-01T05:06:45.080Z,961.4
2018-03-01T05:07:46.716Z,961.3
2018-03-01T05:08:48.356Z,961.4
2018-03-01T05:09:50.007Z,961.3
2018-03-01T05:10:51.649Z,961.3
2018-03-01T05:11:53.298Z,961.4
2018-03-01T05:12:54.943Z,961.3
2018-03-01T05:13:56.594Z,961.3
2018-03-01T05:14:58.232Z,961.3
2018-03-01T05:15:59.877Z,961.3
2018-03-01T05:17:01.521Z,961.2
2018-03-01T05:18:03.167Z,961.2
2018-03-01T05:19:04.822Z,961.2
2018-03-01T05:20:06.460Z,961.2
2018-03-01T05:21:08.114Z,961.2
2018-03-01T05:22:09.765Z,961.2
2018-03-01T05:23:11.416Z,961.2
2018-03-01T05:24:13.057Z,961.2
2018-03-01T05:25:14.706Z,961.1
2018-03-01T05:26:16.340Z,961.1
2018-03-01T05:27:17.989Z,961.1
2018-03-01T05:28:19.623Z,961.2
2018-03-01T05:29:21.271Z,961.2
2018-03-01T05:30:22.921Z,961.1
2018-03-01T05:31:24.568Z,961.1
2018-03-01T05:32:26.222Z,961.1
2018-03-01T05:33:27.864Z,961.1
2018-03-01T05:34:29.533Z,961.1
2018-03-01T05:35:31.196Z,961.2
2018-03-01T05:36:32.835Z,961.1
2018-03-01T05:37:34.492Z,961.2
2018-03-01T05:38:36.130Z,961.2
2018-03-01T05:39:37.771Z,961.3
2018-03-01T05:40:39.420Z,961.3
2018-03-01T05:41:41.062Z,961.2
2018-03-01T05:42:42.697Z,961.3
2018-03-01T05:43:44.359Z,961.3
2018-03-01T05:44:46.012Z,961.2
2018-03-01T05:45:47.639Z,961.2
2018-03-01T05:46:49.295Z,961.2
2018-03-01T05:47:50.989Z,961.1
2018-03-01T05:48:52.632Z,961.1
2018-03-01T05:49:54.276Z,961.1
2018-03-01T05:50:55.931Z,961.0
2018-03-01T05:51:57.582Z,961.0
2018-03-01T05:52:59.229Z,961.0
2018-03-01T05:54:00.882Z,961.0
2018-03-01T05:55:02.533Z,961.1
2018-03-01T05:56:04.171Z,961.0
2018-03-01T05:57:05.824Z,961.1
2018-03-01T05:58:07.481Z,961.1
2018-03-01T05:59:09.133Z,961.1
2018-03-01T06:00:10.794Z,961.1
2018-03-01T06:01:12.436Z,961.0
2018-03-01T06:02:14.081Z,961.1
2018-03-01T06:03:15.731Z,961.0
2018-03-01T06:04:17.380Z,961.0
2018-03-01T06:05:19.033Z,961.1
2018-03-01T06:06:20.681Z,961.1
2018-03-01T06:07:22.326Z,961.1
2018-03-01T06:08:23.970Z,961.1
2018-03-01T06:09:25.635Z,961.2
2018-03-01T06:10:27.261Z,961.2
2018-03-01T06:11:28.911Z,961.1
2018-03-01T06:12:30.571Z,961.2
2018-03-01T06:13:32.217Z,961.2
2018-03-01T06:14:33.874Z,961.3
2018-03-01T06:15:35.563Z,961.2
2018-03-01T06:16:37.213Z,961.2
2018-03-01T06:17:38.859Z,961.2
2018-03-01T06:18:40.513Z,961.3
2018-03-01T06:19:42.155Z,961.2
2018-03-01T06:20:43.809Z,961.2
2018-03-01T06:21:45.465Z,961.2
2018-03-01T06:22:47.119Z,961.2
2018-03-01T06:23:48.763Z,961.1
2018-03-01T06:24:50.406Z,961.1
2018-03-01T06:25:52.057Z,961.1
2018-03-01T06:26:53.741Z,961.1
2018-03-01T06:27:55.393Z,961.0
2018-03-01T06:28:57.043Z,960.9
2018-03-01T06:29:58.698Z,961.0
2018-03-01T06:31:00.357Z,961.0
2018-03-01T06:32:02.006Z,961.0
2018-03-01T06:33:03.655Z,961.0
2018-03-01T06:34:05.303Z,961.0
2018-03-01T06:35:06.961Z,961.0
2018-03-01T06:36:08.608Z,961.0
2018-03-01T06:37:10.259Z,961.1
2018-03-01T06:38:11.902Z,961.0
2018-03-01T06:39:13.553Z,961.1
2018-03-01T06:40:15.199Z,961.1
2018-03-01T06:41:16.849Z,961.2
2018-03-01T06:42:18.501Z,961.1
2018-03-01T06:43:20.156Z,961.1
2018-03-01T06:44:21.800Z,961.2
2018-03-01T06:45:23.453Z,961.1
2018-03-01T06:46:25.112Z,961.1
2018-03-01T06:47:26.763Z,961.1
2018-03-01T06:48:28.420Z,961.1
2018-03-01T06:49:30.068Z,961.1
2018-03-01T06:50:31.726Z,961.1
2018-03-01T06:51:33.376Z,961.1
2018-03-01T06:52:35.030Z,961.0
2018-03-01T06:53:36.672Z,961.1
2018-03-01T06:54:38.321Z,961.1
2018-03-01T07:00:56.593Z,961.2
2018-03-01T07:01:58.232Z,961.1
2018-03-01T07:02:59.871Z,961.1
2018-03-01T07:04:01.516Z,961.1
2018-03-01T07:05:03.173Z,961.1
2018-03-01T07:06:04.824Z,961.1
2018-03-01T07:07:06.470Z,961.1
2018-03-01T07:08:08.119Z,961.2
2018-03-01T07:09:09.771Z,961.0
2018-03-01T07:10:11.422Z,961.0
2018-03-01T07:11:13.087Z,961.1
2018-03-01T07:12:14.737Z,961.1
2018-03-01T07:13:16.395Z,961.0
2018-03-01T07:14:18.043Z,961.0
2018-03-01T07:15:19.691Z,961.0
2018-03-01T07:16:21.341Z,961.0
2018-03-01T07:17:22.989Z,961.0
2018-03-01T07:18:24.641Z,961.1
2018-03-01T07:19:26.297Z,961.0
2018-03-01T07:20:27.944Z,961.0
2018-03-01T07:21:29.590Z,960.9
2018-03-01T07:22:31.308Z,961.0
2018-03-01T07:23:32.917Z,961.0
2018-03-01T07:24:34.560Z,961.1
2018-03-01T07:25:36.210Z,961.0
2018-03-01T07:26:37.864Z,961.0
2018-03-01T07:27:39.508Z,961.0
2018-03-01T07:28:41.170Z,960.9
2018-03-01T07:29:42.824Z,960.9
2018-03-01T07:30:44.468Z,960.9
2018-03-01T07:31:46.120Z,960.9
2018-03-01T07:32:47.787Z,960.9
2018-03-01T07:33:49.443Z,960.8
2018-03-01T07:34:51.088Z,960.8
2018-03-01T07:35:52.795Z,960.9
2018-03-01T07:36:54.446Z,960.9
2018-03-01T07:37:56.164Z,960.8
2018-03-01T07:38:57.815Z,960.9
2018-03-01T07:39:59.470Z,960.8
2018-03-01T07:41:01.122Z,960.9
2018-03-01T07:42:02.781Z,960.9
2018-03-01T07:43:04.432Z,960.9
2018-03-01T07:44:06.087Z,960.7
2018-03-01T07:45:07.739Z,960.8
2018-03-01T07:46:09.387Z,960.9
2018-03-01T07:47:11.031Z,960.8
2018-03-01T07:48:12.703Z,960.8
2018-03-01T07:49:14.358Z,960.8
2018-03-01T07:50:16.000Z,960.9
2018-03-01T07:51:17.686Z,960.9
2018-03-01T07:52:19.329Z,960.8
2018-03-01T07:53:20.978Z,960.9
2018-03-01T07:54:22.629Z,960.8
2018-03-01T07:55:24.286Z,960.8
2018-03-01T07:56:25.936Z,960.8
2018-03-01T07:57:27.593Z,960.9
2018-03-01T07:58:29.246Z,960.9
2018-03-01T07:59:30.897Z,960.9
2018-03-01T08:00:32.548Z,960.9
2018-03-01T08:01:34.230Z,960.9
2018-03-01T08:02:35.876Z,960.9
2018-03-01T08:03:37.525Z,960.8
2018-03-01T08:04:39.202Z,960.9
2018-03-01T08:05:40.853Z,960.7
2018-03-01T08:06:42.513Z,960.9
2018-03-01T08:07:44.174Z,960.8
2018-03-01T08:08:45.831Z,960.9
2018-03-01T08:09:47.482Z,961.0
2018-03-01T08:10:49.134Z,960.8
2018-03-01T08:11:50.792Z,960.8
2018-03-01T08:12:52.448Z,960.9
2018-03-01T08:13:54.104Z,960.9
2018-03-01T08:14:55.767Z,960.9
2018-03-01T08:15:57.422Z,961.0
2018-03-01T08:16:59.088Z,960.8
2018-03-01T08:18:00.740Z,961.0
2018-03-01T08:19:02.404Z,960.9
2018-03-01T08:20:04.059Z,960.9
2018-03-01T08:21:05.706Z,961.0
2018-03-01T08:22:07.377Z,961.0
2018-03-01T08:23:09.023Z,960.9
2018-03-01T08:24:10.695Z,960.9
2018-03-01T08:25:12.348Z,960.8
2018-03-01T08:26:14.004Z,960.9
2018-03-01T08:27:15.660Z,960.8
2018-03-01T08:28:17.307Z,960.6
2018-03-01T08:29:18.959Z,960.8
2018-03-01T08:30:20.622Z,960.8
2018-03-01T08:31:22.283Z,960.7
2018-03-01T08:32:23.933Z,960.7
2018-03-01T08:33:25.589Z,960.9
2018-03-01T08:34:27.259Z,960.8
2018-03-01T08:35:28.908Z,960.8
2018-03-01T08:36:30.567Z,960.8
2018-03-01T08:37:32.231Z,961.0
2018-03-01T08:38:33.943Z,960.8
2018-03-01T08:39:35.593Z,960.8
2018-03-01T08:40:37.256Z,960.7
2018-03-01T08:41:38.909Z,960.8
2018-03-01T08:42:40.566Z,960.8
2018-03-01T08:43:42.219Z,960.9
2018-03-01T08:44:43.873Z,960.8
2018-03-01T08:45:45.540Z,960.9
2018-03-01T08:46:47.198Z,960.8
2018-03-01T08:47:48.870Z,960.7
2018-03-01T08:48:50.561Z,960.8
2018-03-01T08:49:52.220Z,960.8
2018-03-01T08:50:53.873Z,960.7
2018-03-01T08:51:55.524Z,960.7
2018-03-01T08:52:57.211Z,960.6
2018-03-01T08:53:58.843Z,960.6
2018-03-01T08:55:00.545Z,960.7
2018-03-01T08:56:02.161Z,960.4
2018-03-01T08:57:03.813Z,960.7
2018-03-01T08:58:05.476Z,960.6
2018-03-01T08:59:07.132Z,960.7
2018-03-01T09:00:08.791Z,960.8
2018-03-01T09:01:10.443Z,960.8
2018-03-01T09:02:12.147Z,960.7
2018-03-01T09:03:13.810Z,960.7
2018-03-01T09:04:15.511Z,960.9
2018-03-01T09:05:17.179Z,960.8
2018-03-01T09:06:18.847Z,960.7
2018-03-01T09:07:20.503Z,960.8
2018-03-01T09:08:22.202Z,960.9
2018-03-01T09:09:23.828Z,960.8
2018-03-01T09:10:25.483Z,960.8
2018-03-01T09:11:27.147Z,960.8
2018-03-01T09:12:28.810Z,960.8
2018-03-01T09:13:30.475Z,960.8
2018-03-01T09:14:32.140Z,960.8
2018-03-01T09:15:33.798Z,960.8
2018-03-01T09:16:35.471Z,960.7
2018-03-01T09:17:37.134Z,960.7
2018-03-01T09:18:38.793Z,960.7
2018-03-01T09:19:40.451Z,960.6
2018-03-01T09:20:42.121Z,960.5
2018-03-01T09:21:43.781Z,960.6
2018-03-01T09:22:45.441Z,960.5
2018-03-01T09:23:47.113Z,960.5
2018-03-01T09:24:48.809Z,960.5
2018-03-01T09:25:50.446Z,960.6
2018-03-01T09:26:52.098Z,960.5
2018-03-01T09:27:53.762Z,960.5
2018-03-01T09:28:55.422Z,960.5
2018-03-01T09:29:57.077Z,960.5
2018-03-01T09:30:58.755Z,960.5
2018-03-01T09:32:00.438Z,960.5
2018-03-01T09:33:02.099Z,960.5
2018-03-01T09:34:03.766Z,960.5
2018-03-01T09:35:05.416Z,960.6
2018-03-01T09:36:07.079Z,960.5
2018-03-01T09:37:08.743Z,960.5
2018-03-01T09:38:10.407Z,960.7
2018-03-01T09:39:12.085Z,960.6
2018-03-01T09:40:13.738Z,960.5
2018-03-01T09:41:15.412Z,960.6
2018-03-01T09:42:17.086Z,960.6
2018-03-01T09:43:18.743Z,960.6
2018-03-01T09:44:20.410Z,960.8
2018-03-01T09:45:22.070Z,960.7
2018-03-01T09:46:23.807Z,960.5
2018-03-01T09:47:25.466Z,960.6
2018-03-01T09:48:27.116Z,960.5
2018-03-01T09:49:28.778Z,960.5
2018-03-01T09:50:30.443Z,960.6
2018-03-01T09:51:32.117Z,960.7
2018-03-01T09:52:33.774Z,960.5
2018-03-01T09:53:35.440Z,960.7
2018-03-01T09:54:37.111Z,960.5
2018-03-01T09:55:38.771Z,960.5
2018-03-01T09:56:40.442Z,960.4
2018-03-01T09:57:42.105Z,960.3
2018-03-01T09:58:43.773Z,960.3
2018-03-01T09:59:45.446Z,960.4
2018-03-01T10:00:47.110Z,960.4
2018-03-01T10:01:48.780Z,960.3
2018-03-01T10:02:50.445Z,960.3
2018-03-01T10:03:52.104Z,960.3
2018-03-01T10:04:57.974Z,960.2
2018-03-01T10:05:59.639Z,960.1
2018-03-01T10:07:01.356Z,960.2
2018-03-01T10:08:02.970Z,960.1
2018-03-01T10:09:04.636Z,960.1
2018-03-01T10:10:06.298Z,960.2
2018-03-01T10:11:07.964Z,960.1
2018-03-01T10:12:09.625Z,960.1
2018-03-01T10:13:11.292Z,960.1
2018-03-01T10:14:12.953Z,960.0
2018-03-01T10:15:14.616Z,960.1
2018-03-01T10:16:16.280Z,960.0
2018-03-01T10:17:17.943Z,960.1
2018-03-01T10:18:19.621Z,959.9
2018-03-01T10:19:21.285Z,959.9
2018-03-01T10:20:22.939Z,960.0
2018-03-01T10:21:24.601Z,960.0
2018-03-01T10:22:26.267Z,959.9
2018-03-01T10:23:27.930Z,960.0
2018-03-01T10:24:29.588Z,960.0
2018-03-01T10:25:31.259Z,960.0
2018-03-01T10:26:32.910Z,959.9
2018-03-01T10:27:34.586Z,959.9
2018-03-01T10:28:36.261Z,960.0
2018-03-01T10:29:37.940Z,960.4
2018-03-01T10:30:39.586Z,959.9
2018-03-01T10:31:41.251Z,960.0
2018-03-01T10:32:42.918Z,959.8
2018-03-01T10:33:44.579Z,959.8
2018-03-01T10:34:46.249Z,959.7
2018-03-01T10:35:47.921Z,959.8
2018-03-01T10:36:49.579Z,959.9
2018-03-01T10:37:51.241Z,959.9
2018-03-01T10:38:52.907Z,959.9
2018-03-01T10:39:54.578Z,959.6
2018-03-01T10:40:56.238Z,959.7
2018-03-01T10:41:57.905Z,959.8
2018-03-01T10:42:59.572Z,959.8
2018-03-01T10:44:01.246Z,959.7
2018-03-01T10:45:02.907Z,959.7
2018-03-01T10:46:04.573Z,959.7
2018-03-01T10:47:06.235Z,959.6
2018-03-01T10:48:07.894Z,959.6
2018-03-01T10:49:09.553Z,959.7
2018-03-01T10:50:11.208Z,959.5
2018-03-01T10:51:12.870Z,959.3
2018-03-01T10:52:14.534Z,959.7
2018-03-01T10:53:16.204Z,959.5
2018-03-01T10:54:17.861Z,959.5
2018-03-01T10:55:19.536Z,959.3
2018-03-01T11:01:47.045Z,959.3
2018-03-01T11:02:48.702Z,959.5
2018-03-01T11:03:50.367Z,959.4
2018-03-01T11:04:52.080Z,959.4
2018-03-01T11:05:53.679Z,959.3
2018-03-01T11:06:55.339Z,959.4
2018-03-01T11:07:56.998Z,959.4
2018-03-01T11:08:58.663Z,959.4
2018-03-01T11:10:00.322Z,959.5
2018-03-01T11:11:01.978Z,959.3
2018-03-01T11:12:03.659Z,959.3
2018-03-01T11:13:05.318Z,959.3
2018-03-01T11:14:06.975Z,959.3
2018-03-01T11:15:08.639Z,959.2
2018-03-01T11:16:10.306Z,959.2
2018-03-01T11:17:12.013Z,959.1
2018-03-01T11:18:13.623Z,959.1
2018-03-01T11:19:15.289Z,959.2
2018-03-01T11:20:16.961Z,959.2
2018-03-01T11:21:18.644Z,959.3
2018-03-01T11:22:20.307Z,959.1
2018-03-01T11:23:21.987Z,959.2
2018-03-01T11:24:23.651Z,959.1
2018-03-01T11:25:25.288Z,959.1
2018-03-01T11:26:26.947Z,959.2
2018-03-01T11:27:28.608Z,959.1
2018-03-01T11:28:30.264Z,959.1
2018-03-01T11:29:31.931Z,959.1
2018-03-01T11:30:33.593Z,959.1
2018-03-01T11:31:35.258Z,959.1
2018-03-01T11:32:36.959Z,959.0
2018-03-01T11:33:38.627Z,959.0
2018-03-01T11:34:40.329Z,958.9
2018-03-01T11:35:41.944Z,958.8
2018-03-01T11:36:43.604Z,958.9
2018-03-01T11:37:45.267Z,958.9
2018-03-01T11:38:46.933Z,958.9
2018-03-01T11:39:48.592Z,958.8
2018-03-01T11:40:50.256Z,958.8
2018-03-01T11:41:51.972Z,958.8
2018-03-01T11:42:53.579Z,958.7
2018-03-01T11:43:55.254Z,958.7
2018-03-01T11:44:56.922Z,958.8
2018-03-01T11:45:58.579Z,958.8
2018-03-01T11:47:00.249Z,958.7
2018-03-01T11:48:01.908Z,958.6
2018-03-01T11:49:03.564Z,958.6
2018-03-01T11:50:05.250Z,958.6
2018-03-01T11:51:06.921Z,958.6
2018-03-01T11:52:08.587Z,958.7
2018-03-01T11:53:10.274Z,958.6
2018-03-01T11:54:11.941Z,958.5
2018-03-01T11:55:13.612Z,958.6
2018-03-01T11:56:15.276Z,958.5
2018-03-01T11:57:16.981Z,958.6
2018-03-01T11:58:18.604Z,958.5
2018-03-01T11:59:20.278Z,958.6
2018-03-01T12:00:21.941Z,958.8
2018-03-01T12:01:23.609Z,958.6
2018-03-01T12:02:25.279Z,958.6
2018-03-01T12:03:26.945Z,958.5
2018-03-01T12:04:28.604Z,958.5
2018-03-01T12:05:30.281Z,958.4
2018-03-01T12:06:32.004Z,958.4
2018-03-01T12:07:33.664Z,958.4
2018-03-01T12:08:35.330Z,958.5
2018-03-01T12:09:37.004Z,958.3
2018-03-01T12:10:38.740Z,958.5
2018-03-01T12:11:40.357Z,958.5
2018-03-01T12:12:42.031Z,958.3
2018-03-01T12:13:43.690Z,958.3
2018-03-01T12:14:45.355Z,958.4
2018-03-01T12:15:47.016Z,958.4
2018-03-01T12:16:48.674Z,958.5
2018-03-01T12:17:50.345Z,958.4
2018-03-01T12:18:52.016Z,958.4
2018-03-01T12:19:53.688Z,958.6
2018-03-01T12:20:55.357Z,958.4
2018-03-01T12:21:57.016Z,958.3
2018-03-01T12:22:58.686Z,958.5
2018-03-01T12:24:00.347Z,958.3
2018-03-01T12:25:02.014Z,958.3
2018-03-01T12:26:03.678Z,958.4
2018-03-01T12:27:05.343Z,958.4
2018-03-01T12:28:07.041Z,958.3
2018-03-01T12:29:08.677Z,958.3
2018-03-01T12:30:10.347Z,958.2
2018-03-01T12:31:12.013Z,958.2
2018-03-01T12:32:13.686Z,958.2
2018-03-01T12:33:15.346Z,958.2
2018-03-01T12:34:17.022Z,958.2
2018-03-01T12:35:18.676Z,958.0
2018-03-01T12:36:20.344Z,958.0
2018-03-01T12:37:22.010Z,958.0
2018-03-01T12:38:23.681Z,958.0
2018-03-01T12:39:25.353Z,958.0
2018-03-01T12:40:27.019Z,958.1
2018-03-01T12:41:28.672Z,958.2
2018-03-01T12:42:30.345Z,958.1
2018-03-01T12:43:32.010Z,958.1
2018-03-01T12:44:33.676Z,958.1
2018-03-01T12:45:35.340Z,958.2
2018-03-01T12:46:37.021Z,958.4
2018-03-01T12:47:38.687Z,958.3
2018-03-01T12:48:40.353Z,958.3
2018-03-01T12:49:42.016Z,958.2
2018-03-01T12:50:43.663Z,958.2
2018-03-01T12:51:45.327Z,958.2
2018-03-01T12:52:46.987Z,958.1
2018-03-01T12:53:48.651Z,958.2
2018-03-01T12:54:50.299Z,958.1
2018-03-01T12:55:51.977Z,958.2
2018-03-01T12:56:53.644Z,958.3
2018-03-01T12:57:55.307Z,958.2
2018-03-01T12:58:56.964Z,958.2
2018-03-01T12:59:58.627Z,958.2
2018-03-01T13:01:00.303Z,958.2
2018-03-01T13:02:01.963Z,958.0
2018-03-01T13:03:04.065Z,958.1
2018-03-01T13:04:05.725Z,958.0
2018-03-01T13:05:07.395Z,958.1
2018-03-01T13:06:09.057Z,958.0
2018-03-01T13:07:10.729Z,958.1
2018-03-01T13:08:12.391Z,957.9
2018-03-01T13:09:14.061Z,957.8
2018-03-01T13:10:15.724Z,957.9
2018-03-01T13:11:17.392Z,958.0
2018-03-01T13:12:19.063Z,957.9
2018-03-01T13:13:20.720Z,958.0
2018-03-01T13:14:22.393Z,957.8
2018-03-01T13:15:24.046Z,957.9
2018-03-01T13:16:25.714Z,958.0
2018-03-01T13:17:27.375Z,957.9
2018-03-01T13:18:29.039Z,957.7
2018-03-01T13:19:30.700Z,957.8
2018-03-01T13:20:32.377Z,957.7
2018-03-01T13:21:34.028Z,957.8
2018-03-01T13:22:35.700Z,957.7
2018-03-01T13:23:37.370Z,957.7
2018-03-01T13:24:39.032Z,957.8
2018-03-01T13:25:40.695Z,957.7
2018-03-01T13:26:42.361Z,957.8
2018-03-01T13:27:44.031Z,957.8
2018-03-01T13:28:45.696Z,957.7
2018-03-01T13:29:47.373Z,957.7